Time;durP1;ratioP1;P1;durP2;ratioP2;P2;SDS_P1;SDS_P2;PMS_P1;PMS_P2;Temp;Humidity;BMP_temperature;BMP_pressure;BME280_temperature;BME280_humidity;BME280_pressure;Samples;Min_cycle;Max_cycle;Signal;HPM_P1;HPM_P2
2023/05/13 00:00:27;;;;;;;4.63;3.55;;;11.20;15.80;;;;;;7367127;19;20022;-71
2023/05/13 00:02:57;;;;;;;5.50;3.15;;;11.10;16.50;;;;;;7392287;19;20014;-71
2023/05/13 00:05:27;;;;;;;3.83;3.22;;;11.10;16.30;;;;;;7369487;19;20007;-71
2023/05/13 00:08:05;;;;;;;4.15;3.05;;;11.10;16.70;;;;;;7370331;19;20011;-71
2023/05/13 00:10:35;;;;;;;4.82;3.30;;;11.00;16.20;;;;;;7367054;19;20014;-71
2023/05/13 00:13:05;;;;;;;3.50;3.20;;;11.00;16.30;;;;;;7370585;19;20010;-71
2023/05/13 00:15:35;;;;;;;3.78;3.22;;;10.90;16.60;;;;;;7368313;19;20082;-72
2023/05/13 00:18:05;;;;;;;4.55;3.45;;;10.90;17.20;;;;;;7389662;19;20017;-70
2023/05/13 00:20:35;;;;;;;4.15;3.75;;;10.90;17.40;;;;;;7366628;19;20014;-70
2023/05/13 00:23:08;;;;;;;4.03;3.63;;;10.90;17.70;;;;;;7369237;19;20018;-71
2023/05/13 00:25:40;;;;;;;3.80;3.40;;;10.80;17.10;;;;;;7369258;19;20006;-72
2023/05/13 00:28:10;;;;;;;4.07;3.53;;;10.80;17.00;;;;;;7369122;19;20010;-71
2023/05/13 00:30:40;;;;;;;4.50;3.45;;;10.80;16.60;;;;;;7367074;19;20396;-72
2023/05/13 00:33:10;;;;;;;4.25;3.63;;;10.80;15.90;;;;;;7391792;19;20398;-70
2023/05/13 00:35:40;;;;;;;3.88;3.35;;;10.80;15.60;;;;;;7368838;19;20371;-71
2023/05/13 00:38:13;;;;;;;4.30;3.30;;;10.80;15.70;;;;;;7369135;19;20014;-71
2023/05/13 00:40:43;;;;;;;5.22;3.72;;;10.70;15.90;;;;;;7368485;19;20027;-70
2023/05/13 00:43:13;;;;;;;3.95;3.55;;;10.70;16.00;;;;;;7370185;19;20082;-71
2023/05/13 00:45:43;;;;;;;4.43;3.38;;;10.70;16.50;;;;;;7368549;19;20007;-71
2023/05/13 00:48:13;;;;;;;4.68;3.55;;;10.70;16.60;;;;;;7368135;19;20035;-72
2023/05/13 00:50:43;;;;;;;4.72;3.58;;;10.60;16.50;;;;;;7388412;19;20031;-72
2023/05/13 00:53:17;;;;;;;4.30;3.35;;;10.60;16.90;;;;;;7370354;19;20017;-71
2023/05/13 00:55:47;;;;;;;;;;;10.50;16.80;;;;;;7376747;19;20007;-70
2023/05/13 00:58:17;;;;;;;5.43;3.30;;;10.50;17.30;;;;;;7373959;19;19920;-71
2023/05/13 01:00:57;;;;;;;4.70;3.63;;;10.40;17.40;;;;;;7373999;19;20594;-71
2023/05/13 01:03:35;;;;;;;4.43;3.67;;;10.40;18.10;;;;;;7398527;19;20007;-71
2023/05/13 01:06:13;;;;;;;3.95;3.55;;;10.30;18.60;;;;;;7367035;19;20031;-71
2023/05/13 01:08:54;;;;;;;4.47;3.33;;;10.20;18.70;;;;;;7371954;19;20002;-71
2023/05/13 01:11:29;;;;;;;5.10;3.60;;;10.20;19.00;;;;;;7375485;19;20502;-71
2023/05/13 01:14:04;;;;;;;4.15;3.72;;;10.20;19.60;;;;;;7375619;19;20035;-71
2023/05/13 01:16:41;;;;;;;4.50;3.83;;;10.10;20.10;;;;;;7376605;19;20490;-71
2023/05/13 01:19:27;;;;;;;4.30;3.72;;;10.10;20.30;;;;;;7375667;19;20438;-71
2023/05/13 01:22:00;;;;;;;4.32;3.70;;;10.00;20.70;;;;;;7376610;19;20020;-71
2023/05/13 01:24:30;;;;;;;6.65;3.88;;;10.00;21.00;;;;;;7375017;19;20010;-71
2023/05/13 01:27:00;;;;;;;5.60;3.55;;;9.90;22.00;;;;;;7396767;19;20018;-70
2023/05/13 01:29:31;;;;;;;4.00;3.60;;;9.80;22.10;;;;;;7380141;19;20003;-70
2023/05/13 01:32:02;;;;;;;4.43;3.67;;;9.80;22.60;;;;;;7407033;19;20010;-70
2023/05/13 01:34:33;;;;;;;6.75;4.07;;;9.80;22.90;;;;;;7407680;19;20074;-70
2023/05/13 01:37:06;;;;;;;5.18;4.00;;;9.80;23.10;;;;;;7395255;19;20014;-71
2023/05/13 01:39:38;;;;;;;4.20;3.80;;;9.70;22.90;;;;;;7375647;19;20023;-71
2023/05/13 01:42:08;;;;;;;5.07;3.47;;;9.70;23.00;;;;;;7397361;19;20086;-71
2023/05/13 01:44:38;;;;;;;5.53;4.50;;;9.70;23.10;;;;;;7374285;19;20468;-71
2023/05/13 01:47:08;;;;;;;4.55;3.42;;;9.70;23.30;;;;;;7374995;19;20011;-71
2023/05/13 01:49:38;;;;;;;5.13;4.15;;;9.60;23.40;;;;;;7371668;19;20478;-70
2023/05/13 01:52:11;;;;;;;5.18;3.70;;;9.60;23.60;;;;;;7374061;19;20025;-71
2023/05/13 01:54:41;;;;;;;5.47;4.03;;;9.60;23.50;;;;;;7374066;19;20015;-70
2023/05/13 01:57:11;;;;;;;4.70;3.88;;;9.60;23.40;;;;;;7395674;19;20018;-71
2023/05/13 01:59:41;;;;;;;5.53;3.97;;;9.60;23.70;;;;;;7371269;19;20017;-71
2023/05/13 02:02:11;;;;;;;4.65;3.70;;;9.60;23.90;;;;;;7374197;19;20011;-71
2023/05/13 02:04:41;;;;;;;4.32;3.90;;;9.50;24.00;;;;;;7372385;19;20017;-71
2023/05/13 02:07:13;;;;;;;4.82;4.30;;;9.50;24.30;;;;;;7372789;19;20014;-71
2023/05/13 02:09:43;;;;;;;5.05;4.43;;;9.50;24.30;;;;;;7371085;19;20106;-71
2023/05/13 02:12:13;;;;;;;5.43;3.95;;;9.50;24.60;;;;;;7395833;19;20020;-71
2023/05/13 02:14:43;;;;;;;6.45;3.90;;;9.50;24.60;;;;;;7373121;19;20010;-71
2023/05/13 02:17:13;;;;;;;7.13;4.00;;;9.50;24.60;;;;;;7372498;19;20011;-71
2023/05/13 02:19:42;;;;;;;4.72;4.22;;;9.50;24.30;;;;;;7370282;19;20010;-71
2023/05/13 02:22:15;;;;;;;5.95;4.57;;;9.40;24.00;;;;;;7373835;19;20007;-71
2023/05/13 02:24:45;;;;;;;4.38;3.90;;;9.40;24.50;;;;;;7372768;19;20019;-71
2023/05/13 02:27:15;;;;;;;5.57;4.18;;;9.40;24.70;;;;;;7395123;19;20471;-71
2023/05/13 02:29:45;;;;;;;4.47;4.07;;;9.40;24.70;;;;;;7369351;19;20074;-71
2023/05/13 02:32:15;;;;;;;6.55;4.10;;;9.40;24.40;;;;;;7372554;19;20013;-71
2023/05/13 02:34:45;;;;;;;5.30;4.10;;;9.40;24.20;;;;;;7372678;19;20123;-71
2023/05/13 02:37:17;;;;;;;4.18;3.78;;;9.40;23.50;;;;;;7372854;19;20366;-71
2023/05/13 02:39:47;;;;;;;4.80;3.47;;;9.40;22.80;;;;;;7369945;19;20006;-71
2023/05/13 02:42:20;;;;;;;5.10;3.70;;;9.40;22.80;;;;;;7372611;19;20347;-71
2023/05/13 02:44:50;;;;;;;4.75;4.25;;;9.40;22.40;;;;;;7392800;19;20351;-71
2023/05/13 02:47:20;;;;;;;5.22;4.32;;;9.40;22.40;;;;;;7372010;19;20006;-71
2023/05/13 02:49:50;;;;;;;4.80;4.30;;;9.40;23.40;;;;;;7368041;19;20018;-71
2023/05/13 02:52:22;;;;;;;6.03;4.70;;;9.30;24.10;;;;;;7372015;19;20021;-71
2023/05/13 02:54:52;;;;;;;5.82;4.53;;;9.40;25.80;;;;;;7371485;19;20010;-71
2023/05/13 02:57:22;;;;;;;8.35;4.80;;;9.30;25.80;;;;;;7371269;19;20017;-71
2023/05/13 02:59:52;;;;;;;5.95;4.55;;;9.30;26.50;;;;;;7389493;19;20014;-71
2023/05/13 03:02:22;;;;;;;5.22;4.60;;;9.30;26.90;;;;;;7371082;19;20015;-71
2023/05/13 03:04:53;;;;;;;5.50;4.80;;;9.30;26.80;;;;;;7370996;19;20015;-71
2023/05/13 03:07:26;;;;;;;6.00;4.85;;;9.30;26.90;;;;;;7371539;19;20458;-71
2023/05/13 03:09:56;;;;;;;5.25;4.68;;;9.40;27.30;;;;;;7368970;19;20344;-71
2023/05/13 03:12:26;;;;;;;8.73;4.82;;;9.40;26.60;;;;;;7371195;19;20475;-71
2023/05/13 03:14:56;;;;;;;5.95;5.05;;;9.30;26.60;;;;;;7392462;19;20010;-71
2023/05/13 03:17:29;;;;;;;6.32;4.95;;;9.30;26.70;;;;;;7369652;19;20006;-71
2023/05/13 03:19:59;;;;;;;6.20;4.60;;;9.30;25.80;;;;;;7366485;19;20022;-71
2023/05/13 03:22:32;;;;;;;5.72;4.40;;;9.30;25.80;;;;;;7371210;19;20085;-72
2023/05/13 03:25:03;;;;;;;5.05;4.32;;;9.40;25.80;;;;;;7371068;19;20014;-71
2023/05/13 03:27:33;;;;;;;6.68;4.63;;;9.40;25.40;;;;;;7371144;19;20089;-71
2023/05/13 03:30:03;;;;;;;5.70;4.22;;;9.50;24.30;;;;;;7388654;19;20063;-71
2023/05/13 03:32:33;;;;;;;4.28;3.72;;;9.50;24.60;;;;;;7370784;19;20026;-71
2023/05/13 03:35:03;;;;;;;7.55;4.32;;;9.60;24.10;;;;;;7370252;19;20030;-71
2023/05/13 03:37:36;;;;;;;5.32;4.22;;;9.60;23.10;;;;;;7370953;19;20740;-71
2023/05/13 03:40:07;;;;;;;4.75;3.92;;;9.50;22.40;;;;;;7366900;19;20074;-71
2023/05/13 03:42:37;;;;;;;4.80;4.00;;;9.60;20.30;;;;;;7371136;19;20047;-71
2023/05/13 03:45:08;;;;;;;4.70;4.07;;;9.60;17.20;;;;;;7391538;19;20006;-71
2023/05/13 03:47:38;;;;;;;4.55;4.05;;;9.70;17.20;;;;;;7370539;19;20019;-71
2023/05/13 03:50:10;;;;;;;6.85;3.75;;;9.70;17.30;;;;;;7367083;19;20031;-71
2023/05/13 03:52:43;;;;;;;4.53;3.40;;;9.80;17.10;;;;;;7370773;19;20011;-71
2023/05/13 03:55:16;;;;;;;4.80;3.70;;;9.80;17.20;;;;;;7370234;19;20446;-71
2023/05/13 03:57:51;;;;;;;4.10;3.70;;;9.70;17.50;;;;;;7367794;19;20375;-71
2023/05/13 04:00:21;;;;;;;4.18;3.78;;;9.70;17.00;;;;;;7366981;19;20007;-71
2023/05/13 04:02:51;;;;;;;4.95;4.40;;;9.80;16.70;;;;;;7392121;19;20336;-71
2023/05/13 04:05:21;;;;;;;4.55;4.15;;;9.80;17.00;;;;;;7369110;19;20522;-71
2023/05/13 04:07:54;;;;;;;6.97;4.15;;;9.80;18.10;;;;;;7363677;19;20062;-71
2023/05/13 04:10:24;;;;;;;4.55;3.95;;;9.70;17.10;;;;;;7388511;19;20051;-71
2023/05/13 04:12:54;;;;;;;4.10;3.70;;;9.80;17.80;;;;;;7369948;19;20014;-71
2023/05/13 04:15:24;;;;;;;5.22;4.00;;;9.70;17.60;;;;;;7368794;19;20042;-71
2023/05/13 04:17:54;;;;;;;5.43;4.40;;;9.70;17.10;;;;;;7390396;19;20087;-71
2023/05/13 04:20:24;;;;;;;6.53;3.92;;;9.80;16.80;;;;;;7365917;19;20010;-71
2023/05/13 04:22:56;;;;;;;5.40;4.03;;;9.80;16.80;;;;;;7368234;19;20011;-71
2023/05/13 04:25:26;;;;;;;9.07;4.10;;;9.80;17.20;;;;;;7368753;19;20010;-71
2023/05/13 04:27:56;;;;;;;5.10;4.28;;;9.80;16.40;;;;;;7367492;19;20019;-71
2023/05/13 04:30:26;;;;;;;4.03;3.63;;;9.80;15.80;;;;;;7373265;19;20014;-71
2023/05/13 04:32:56;;;;;;;5.68;4.10;;;9.80;15.60;;;;;;7397857;19;20469;-71
2023/05/13 04:35:26;;;;;;;5.90;4.20;;;9.90;16.60;;;;;;7375218;19;20010;-71
2023/05/13 04:37:59;;;;;;;6.60;4.50;;;9.90;16.80;;;;;;7374302;19;20027;-71
2023/05/13 04:40:29;;;;;;;5.38;4.10;;;9.90;15.60;;;;;;7373275;19;20106;-71
2023/05/13 04:42:58;;;;;;;5.47;3.88;;;9.90;15.30;;;;;;7375990;19;20014;-71
2023/05/13 04:45:30;;;;;;;5.80;3.90;;;9.90;14.10;;;;;;7375500;19;20012;-71
2023/05/13 04:48:00;;;;;;;5.35;3.72;;;9.90;14.00;;;;;;7396257;19;20018;-71
2023/05/13 04:50:30;;;;;;;6.25;3.90;;;9.90;13.80;;;;;;7373062;19;20086;-71
2023/05/13 04:53:03;;;;;;;6.90;4.10;;;9.90;13.70;;;;;;7373227;19;20027;-71
2023/05/13 04:55:33;;;;;;;5.10;3.92;;;10.00;12.30;;;;;;7373932;19;20420;-71
2023/05/13 04:58:03;;;;;;;4.28;3.72;;;10.10;11.10;;;;;;7373771;19;20018;-71
2023/05/13 05:00:33;;;;;;;5.47;4.10;;;10.10;11.50;;;;;;7371454;19;20390;-70
2023/05/13 05:03:03;;;;;;;5.30;4.30;;;10.20;11.50;;;;;;7397542;19;20020;-70
2023/05/13 05:05:33;;;;;;;3.95;3.47;;;10.20;9.90;;;;;;7374523;19;20035;-71
2023/05/13 05:08:06;;;;;;;7.32;3.53;;;10.20;8.90;;;;;;7373369;19;20302;-71
2023/05/13 05:10:36;;;;;;;4.28;3.30;;;10.30;8.70;;;;;;7372911;19;20019;-71
2023/05/13 05:13:06;;;;;;;5.20;3.47;;;10.30;8.60;;;;;;7375743;19;20018;-71
2023/05/13 05:15:36;;;;;;;6.32;3.58;;;10.30;7.90;;;;;;7374556;19;20014;-69
2023/05/13 05:18:06;;;;;;;5.22;3.58;;;10.30;8.00;;;;;;7395726;19;20011;-71
2023/05/13 05:20:37;;;;;;;4.65;3.97;;;10.30;8.00;;;;;;7371578;19;20462;-71
2023/05/13 05:23:10;;;;;;;4.10;3.42;;;10.40;6.60;;;;;;7374948;19;20499;-71
2023/05/13 05:25:40;;;;;;;5.85;4.68;;;10.40;7.10;;;;;;7374145;19;20014;-71
2023/05/13 05:28:10;;;;;;;6.15;3.88;;;10.40;8.00;;;;;;7374146;19;20007;-71
2023/05/13 05:30:40;;;;;;;4.93;4.10;;;10.30;11.70;;;;;;7372358;19;20015;-71
2023/05/13 05:33:10;;;;;;;4.40;3.90;;;10.40;11.70;;;;;;7396769;19;20025;-71
2023/05/13 05:35:40;;;;;;;5.20;3.83;;;10.40;9.70;;;;;;7373320;19;20312;-71
2023/05/13 05:38:13;;;;;;;7.13;4.25;;;10.50;10.70;;;;;;7373438;19;20094;-71
2023/05/13 05:40:45;;;;;;;4.55;4.10;;;10.50;10.00;;;;;;7371908;19;20458;-71
2023/05/13 05:43:15;;;;;;;5.72;4.18;;;10.50;11.20;;;;;;7374663;19;20011;-71
2023/05/13 05:45:45;;;;;;;6.32;4.10;;;10.60;10.60;;;;;;7373537;19;20030;-71
2023/05/13 05:48:15;;;;;;;4.57;4.10;;;10.50;9.80;;;;;;7393700;19;20456;-71
2023/05/13 05:50:45;;;;;;;4.97;3.72;;;10.50;10.20;;;;;;7370264;19;20007;-71
2023/05/13 05:53:17;;;;;;;5.15;3.80;;;10.60;9.10;;;;;;7373604;19;20013;-71
2023/05/13 05:55:47;;;;;;;6.85;4.10;;;10.70;8.70;;;;;;7373361;19;20017;-71
2023/05/13 05:58:21;;;;;;;4.35;3.95;;;10.80;8.40;;;;;;7370987;19;20003;-72
2023/05/13 06:00:50;;;;;;;5.90;3.83;;;10.60;7.80;;;;;;7371003;19;20003;-71
2023/05/13 06:03:21;;;;;;;5.35;3.65;;;10.60;8.20;;;;;;7395640;19;20016;-71
2023/05/13 06:05:51;;;;;;;6.15;3.88;;;10.60;8.20;;;;;;7373720;19;20509;-69
2023/05/13 06:08:28;;;;;;;4.90;3.80;;;10.70;8.10;;;;;;7370147;19;20035;-71
2023/05/13 06:10:59;;;;;;;5.95;3.70;;;10.60;8.20;;;;;;7371175;19;20014;-72
2023/05/13 06:13:29;;;;;;;4.28;3.88;;;10.50;9.00;;;;;;7372094;19;20029;-71
2023/05/13 06:15:59;;;;;;;5.45;3.80;;;10.40;9.20;;;;;;7372969;19;20381;-71
2023/05/13 06:18:29;;;;;;;5.85;4.03;;;10.60;11.80;;;;;;7371117;19;20031;-71
2023/05/13 06:20:59;;;;;;;5.70;4.63;;;10.60;10.80;;;;;;7391875;19;20044;-71
2023/05/13 06:23:31;;;;;;;6.22;4.75;;;10.60;12.90;;;;;;7371173;19;20031;-71
2023/05/13 06:26:01;;;;;;;5.25;4.40;;;10.50;12.20;;;;;;7372268;19;20086;-71
2023/05/13 06:28:31;;;;;;;5.60;4.70;;;10.50;12.70;;;;;;7370368;19;20016;-71
2023/05/13 06:31:01;;;;;;;5.38;4.88;;;10.60;15.10;;;;;;7370869;19;20006;-71
2023/05/13 06:33:31;;;;;;;4.75;4.28;;;10.50;12.50;;;;;;7371616;19;20014;-71
2023/05/13 06:36:01;;;;;;;5.30;4.78;;;10.70;13.10;;;;;;7394196;19;20028;-71
2023/05/13 06:38:34;;;;;;;5.72;4.78;;;10.70;13.30;;;;;;7368993;19;20039;-71
2023/05/13 06:41:05;;;;;;;7.40;4.50;;;10.60;13.60;;;;;;7369621;19;20007;-70
2023/05/13 06:43:34;;;;;;;6.45;4.75;;;10.80;13.00;;;;;;7370649;19;20014;-71
2023/05/13 06:46:04;;;;;;;6.28;4.20;;;11.00;12.20;;;;;;7371037;19;20010;-71
2023/05/13 06:48:34;;;;;;;5.60;4.60;;;11.00;10.50;;;;;;7369446;19;20670;-71
2023/05/13 06:51:04;;;;;;;5.95;4.47;;;11.00;9.20;;;;;;7389407;19;20033;-71
2023/05/13 06:53:37;;;;;;;5.95;4.43;;;11.20;7.50;;;;;;7371188;19;20010;-71
2023/05/13 06:56:07;;;;;;;5.30;4.30;;;11.10;5.00;;;;;;7372361;19;20446;-71
2023/05/13 06:58:37;;;;;;;8.80;4.00;;;11.10;2.30;;;;;;7369282;19;20015;-71
2023/05/13 07:01:07;;;;;;;7.15;4.47;;;11.30;2.40;;;;;;7370683;19;20415;-71
2023/05/13 07:03:37;;;;;;;6.63;4.65;;;11.40;1.50;;;;;;7371161;19;20034;-71
2023/05/13 07:06:07;;;;;;;7.13;5.43;;;11.40;1.50;;;;;;7394230;19;20037;-71
2023/05/13 07:08:40;;;;;;;5.72;4.97;;;11.20;1.00;;;;;;7367689;19;20042;-70
2023/05/13 07:11:09;;;;;;;7.07;4.60;;;11.30;1.10;;;;;;7369879;19;20010;-71
2023/05/13 07:13:39;;;;;;;5.55;4.75;;;11.20;1.10;;;;;;7369779;19;20014;-71
2023/05/13 07:16:10;;;;;;;6.85;5.18;;;11.30;1.20;;;;;;7371308;19;20070;-71
2023/05/13 07:18:40;;;;;;;5.05;4.20;;;11.20;1.10;;;;;;7369112;19;20022;-71
2023/05/13 07:21:09;;;;;;;4.78;4.32;;;11.20;1.90;;;;;;7390536;19;20014;-70
2023/05/13 07:23:42;;;;;;;5.70;4.32;;;11.20;1.20;;;;;;7368723;19;20065;-70
2023/05/13 07:26:13;;;;;;;5.22;4.18;;;11.30;1.20;;;;;;7370428;19;20356;-70
2023/05/13 07:28:43;;;;;;;5.93;4.05;;;11.30;1.80;;;;;;7368656;19;20374;-70
2023/05/13 07:31:13;;;;;;;4.88;4.13;;;11.30;1.80;;;;;;7368272;19;20007;-70
2023/05/13 07:33:43;;;;;;;7.18;4.10;;;11.30;2.70;;;;;;7370391;19;21305;-71
2023/05/13 07:36:13;;;;;;;4.90;4.20;;;11.30;2.90;;;;;;7392517;19;20074;-70
2023/05/13 07:38:45;;;;;;;5.93;4.00;;;11.30;2.70;;;;;;7367641;19;20015;-70
2023/05/13 07:41:15;;;;;;;8.13;5.03;;;11.30;1.10;;;;;;7367992;19;20466;-70
2023/05/13 07:43:45;;;;;;;7.07;4.28;;;11.40;1.30;;;;;;7369321;19;20003;-70
2023/05/13 07:46:15;;;;;;;5.25;3.60;;;11.50;1.40;;;;;;7369478;19;20017;-71
2023/05/13 07:48:45;;;;;;;6.68;4.20;;;11.30;1.00;;;;;;7368069;19;20011;-71
2023/05/13 07:51:15;;;;;;;5.75;4.20;;;11.40;1.00;;;;;;7389562;19;20010;-71
2023/05/13 07:53:47;;;;;;;4.32;3.92;;;11.50;1.00;;;;;;7367975;19;20479;-71
2023/05/13 07:56:17;;;;;;;8.55;3.85;;;11.50;1.00;;;;;;7368727;19;20010;-71
2023/05/13 07:58:49;;;;;;;7.55;4.20;;;11.60;1.00;;;;;;7367057;19;20021;-69
2023/05/13 08:01:19;;;;;;;7.22;4.45;;;11.60;1.00;;;;;;7366440;19;20063;-70
2023/05/13 08:03:49;;;;;;;5.07;4.32;;;11.60;1.00;;;;;;7368666;19;20018;-70
2023/05/13 08:06:19;;;;;;;6.45;4.00;;;11.60;1.00;;;;;;7391296;19;20014;-70
2023/05/13 08:08:51;;;;;;;8.30;4.00;;;11.60;1.00;;;;;;7367510;19;20105;-71
2023/05/13 08:11:21;;;;;;;6.68;4.22;;;11.80;1.00;;;;;;7367997;19;20010;-70
2023/05/13 08:13:51;;;;;;;6.35;4.35;;;11.60;1.00;;;;;;7368404;19;20478;-71
2023/05/13 08:16:21;;;;;;;6.78;4.28;;;11.70;1.00;;;;;;7369253;19;20414;-70
2023/05/13 08:18:51;;;;;;;5.57;3.80;;;11.90;1.00;;;;;;7366880;19;20482;-70
2023/05/13 08:21:21;;;;;;;4.53;4.10;;;11.80;1.00;;;;;;7387461;19;20482;-71
2023/05/13 08:23:54;;;;;;;6.22;4.25;;;11.90;1.00;;;;;;7390096;19;20766;-70
2023/05/13 08:26:24;;;;;;;5.22;3.92;;;11.90;1.00;;;;;;7367610;19;20446;-70
2023/05/13 08:28:55;;;;;;;6.40;4.45;;;12.00;1.00;;;;;;7366794;19;20015;-71
2023/05/13 08:31:26;;;;;;;5.25;4.30;;;12.00;1.00;;;;;;7368245;19;20010;-71
2023/05/13 08:33:56;;;;;;;5.00;4.00;;;12.10;1.00;;;;;;7367714;19;20506;-71
2023/05/13 08:36:27;;;;;;;4.53;4.13;;;12.10;1.00;;;;;;7368323;19;20017;-70
2023/05/13 08:39:00;;;;;;;8.05;4.60;;;12.20;1.00;;;;;;7384748;19;20023;-71
2023/05/13 08:41:32;;;;;;;4.38;3.95;;;12.20;1.00;;;;;;7367284;19;20094;-71
2023/05/13 08:44:06;;;;;;;6.53;4.03;;;12.20;1.00;;;;;;7367396;19;20014;-71
2023/05/13 08:46:40;;;;;;;6.13;3.80;;;12.30;1.00;;;;;;7367776;19;20094;-71
2023/05/13 08:49:11;;;;;;;4.65;3.60;;;12.40;1.00;;;;;;7365058;19;20006;-71
2023/05/13 08:51:43;;;;;;;6.43;3.83;;;12.40;1.00;;;;;;7367948;19;20010;-71
2023/05/13 08:54:16;;;;;;;5.95;3.70;;;12.40;1.00;;;;;;7389580;19;20027;-71
2023/05/13 08:56:46;;;;;;;6.50;4.73;;;12.20;1.00;;;;;;7368211;19;20045;-69
2023/05/13 08:59:16;;;;;;;4.47;3.97;;;12.30;1.00;;;;;;7365060;19;20829;-70
2023/05/13 09:01:48;;;;;;;6.03;3.88;;;12.40;1.00;;;;;;7366891;19;20026;-70
2023/05/13 09:04:20;;;;;;;4.18;3.78;;;12.40;1.00;;;;;;7367390;19;20007;-71
2023/05/13 09:06:50;;;;;;;4.57;3.97;;;12.50;1.00;;;;;;7367911;19;20006;-71
2023/05/13 09:09:23;;;;;;;4.15;3.58;;;12.50;1.00;;;;;;7386819;19;20010;-71
2023/05/13 09:11:53;;;;;;;4.45;3.88;;;12.50;1.00;;;;;;7367034;19;20014;-71
2023/05/13 09:14:22;;;;;;;4.13;3.55;;;12.60;1.00;;;;;;7366765;19;20537;-71
2023/05/13 09:16:52;;;;;;;4.18;3.75;;;12.50;1.00;;;;;;7374508;19;20007;-71
2023/05/13 09:19:25;;;;;;;5.85;3.67;;;12.70;1.00;;;;;;7371689;19;20349;-70
2023/05/13 09:21:56;;;;;;;7.35;4.43;;;12.90;1.00;;;;;;7374093;19;20014;-72
2023/05/13 09:24:29;;;;;;;7.03;5.15;;;12.80;1.00;;;;;;7374663;19;20078;-71
2023/05/13 09:26:59;;;;;;;4.18;3.70;;;12.90;1.00;;;;;;7396747;19;20034;-72
2023/05/13 09:29:29;;;;;;;9.13;4.13;;;13.30;1.00;;;;;;7370141;19;20426;-71
2023/05/13 09:32:02;;;;;;;4.47;3.88;;;13.20;1.00;;;;;;7373439;19;20025;-70
2023/05/13 09:34:34;;;;;;;4.30;3.90;;;13.40;1.00;;;;;;7371974;19;20486;-71
2023/05/13 09:37:05;;;;;;;4.90;3.90;;;13.10;1.00;;;;;;7373508;19;20021;-71
2023/05/13 09:39:41;;;;;;;4.10;3.45;;;13.30;1.00;;;;;;7370708;19;20029;-71
2023/05/13 09:42:17;;;;;;;4.95;3.78;;;13.50;1.00;;;;;;7393784;19;20347;-71
2023/05/13 09:44:48;;;;;;;3.70;3.25;;;13.10;1.00;;;;;;7372403;19;20006;-71
2023/05/13 09:47:19;;;;;;;4.72;4.13;;;13.50;1.00;;;;;;7372854;19;20007;-70
2023/05/13 09:49:58;;;;;;;5.13;4.18;;;13.60;1.00;;;;;;7370008;19;20018;-70
2023/05/13 09:52:31;;;;;;;5.22;4.00;;;13.20;1.00;;;;;;7373545;19;20006;-70
2023/05/13 09:55:05;;;;;;;6.05;4.05;;;13.20;1.00;;;;;;7372496;19;20021;-70
2023/05/13 09:57:36;;;;;;;5.30;4.15;;;13.30;1.00;;;;;;7371773;19;20011;-70
2023/05/13 10:00:08;;;;;;;8.40;4.63;;;13.20;1.00;;;;;;7392253;19;20018;-71
2023/05/13 10:02:50;;;;;;;4.93;4.43;;;13.30;1.00;;;;;;7372038;19;20002;-70
2023/05/13 10:05:21;;;;;;;5.13;4.30;;;13.40;1.00;;;;;;7371057;19;20034;-71
2023/05/13 10:07:51;;;;;;;4.18;3.72;;;13.40;1.00;;;;;;7370879;19;20011;-71
2023/05/13 10:10:24;;;;;;;4.20;3.80;;;13.30;1.00;;;;;;7370145;19;20010;-71
2023/05/13 10:12:55;;;;;;;4.35;3.95;;;13.40;1.00;;;;;;7372116;19;20007;-70
2023/05/13 10:15:25;;;;;;;5.00;3.85;;;13.30;1.00;;;;;;7371730;19;20011;-71
2023/05/13 10:17:56;;;;;;;6.35;4.43;;;13.60;1.00;;;;;;7392218;19;20086;-71
2023/05/13 10:20:27;;;;;;;5.28;3.63;;;13.60;1.00;;;;;;7369686;19;20007;-71
2023/05/13 10:22:58;;;;;;;5.40;4.22;;;13.30;1.00;;;;;;7370204;19;20086;-71
2023/05/13 10:25:32;;;;;;;4.38;3.90;;;13.20;1.00;;;;;;7371801;19;20014;-72
2023/05/13 10:28:04;;;;;;;5.03;4.10;;;13.20;1.00;;;;;;7369458;19;20074;-71
2023/05/13 10:30:35;;;;;;;5.07;4.57;;;13.40;1.00;;;;;;7367922;19;20475;-72
2023/05/13 10:33:05;;;;;;;6.28;4.35;;;13.50;1.00;;;;;;7392480;19;20014;-72
2023/05/13 10:35:39;;;;;;;7.72;4.32;;;13.70;1.00;;;;;;7370847;19;20476;-72
2023/05/13 10:38:17;;;;;;;3.83;3.42;;;13.80;1.00;;;;;;7369318;19;20010;-72
2023/05/13 10:41:10;;;;;;;5.95;3.75;;;13.80;1.00;;;;;;7371611;19;20007;-71
2023/05/13 10:43:40;;;;;;;4.65;4.20;;;13.60;1.00;;;;;;7371215;19;20015;-71
2023/05/13 10:46:14;;;;;;;5.80;4.00;;;13.90;1.00;;;;;;7371022;19;20082;-71
2023/05/13 10:48:48;;;;;;;4.95;4.45;;;14.00;1.00;;;;;;7370269;19;20014;-71
2023/05/13 10:51:20;;;;;;;4.53;4.10;;;14.10;1.00;;;;;;7390785;19;20022;-71
2023/05/13 10:53:51;;;;;;;5.13;4.22;;;14.20;1.00;;;;;;7371551;19;20038;-71
2023/05/13 10:56:26;;;;;;;4.30;3.90;;;14.20;1.00;;;;;;7370222;19;20037;-72
2023/05/13 10:59:01;;;;;;;4.68;3.70;;;14.30;1.00;;;;;;7368724;19;20011;-71
2023/05/13 11:01:35;;;;;;;5.13;3.95;;;14.50;1.00;;;;;;7371146;19;20034;-72
2023/05/13 11:04:06;;;;;;;4.07;3.60;;;14.60;1.00;;;;;;7369611;19;20044;-71
2023/05/13 11:06:38;;;;;;;4.53;3.45;;;14.80;1.00;;;;;;7371289;19;20021;-71
2023/05/13 11:09:09;;;;;;;4.30;3.90;;;14.80;1.00;;;;;;7390981;19;20010;-72
2023/05/13 11:11:42;;;;;;;3.83;3.50;;;14.60;1.00;;;;;;7369473;19;20343;-71
2023/05/13 11:14:19;;;;;;;4.72;3.55;;;14.30;1.00;;;;;;7370447;19;20010;-71
2023/05/13 11:16:54;;;;;;;3.95;3.40;;;14.60;1.00;;;;;;7369806;19;20351;-71
2023/05/13 11:19:27;;;;;;;4.57;3.55;;;14.60;1.00;;;;;;7366959;19;20011;-72
2023/05/13 11:21:59;;;;;;;3.67;3.22;;;14.80;1.00;;;;;;7368615;19;20011;-71
2023/05/13 11:24:28;;;;;;;3.17;2.88;;;14.30;1.00;;;;;;7368260;19;20010;-71
2023/05/13 11:27:15;;;;;;;6.38;3.25;;;14.40;1.00;;;;;;7388655;19;20015;-71
2023/05/13 11:29:51;;;;;;;3.75;3.05;;;14.40;1.00;;;;;;7367913;19;20035;-71
2023/05/13 11:32:51;;;;;;;4.20;3.35;;;14.40;1.00;;;;;;7370601;19;20014;-71
2023/05/13 11:35:21;;;;;;;6.40;3.17;;;14.60;1.00;;;;;;7368592;19;20074;-71
2023/05/13 11:37:51;;;;;;;3.50;3.20;;;14.70;1.00;;;;;;7366508;19;20019;-71
2023/05/13 11:40:25;;;;;;;4.10;3.17;;;14.70;1.00;;;;;;7368261;19;20010;-70
2023/05/13 11:42:58;;;;;;;4.22;3.30;;;14.40;1.00;;;;;;7370591;19;20052;-71
2023/05/13 11:45:29;;;;;;;6.40;3.47;;;14.60;1.00;;;;;;7369232;19;20434;-71
2023/05/13 11:47:59;;;;;;;4.93;3.75;;;14.40;1.00;;;;;;7389690;19;20014;-70
2023/05/13 11:50:31;;;;;;;3.53;3.05;;;14.40;1.00;;;;;;7367162;19;20023;-70
2023/05/13 11:53:03;;;;;;;7.45;3.50;;;14.60;1.00;;;;;;7370228;19;20037;-70
2023/05/13 11:55:35;;;;;;;4.70;3.70;;;14.70;1.00;;;;;;7368710;19;20560;-70
2023/05/13 11:58:07;;;;;;;4.25;3.38;;;14.90;1.00;;;;;;7367463;19;20455;-70
2023/05/13 12:00:37;;;;;;;3.92;3.20;;;14.80;1.00;;;;;;7368760;19;20018;-70
2023/05/13 12:03:14;;;;;;;4.68;3.45;;;15.10;1.00;;;;;;7390455;19;20078;-70
2023/05/13 12:05:45;;;;;;;4.35;3.55;;;15.00;1.00;;;;;;7368231;19;20010;-71
2023/05/13 12:08:15;;;;;;;3.45;3.15;;;15.00;1.00;;;;;;7367494;19;20040;-70
2023/05/13 12:10:45;;;;;;;5.18;3.50;;;14.90;1.00;;;;;;7368323;19;20003;-70
2023/05/13 12:13:18;;;;;;;4.95;4.05;;;15.00;1.00;;;;;;7368822;19;20010;-70
2023/05/13 12:15:49;;;;;;;4.97;3.97;;;15.20;1.00;;;;;;7368199;19;20030;-70
2023/05/13 12:18:19;;;;;;;4.07;3.42;;;15.10;1.00;;;;;;7391021;19;20463;-70
2023/05/13 12:20:50;;;;;;;5.05;3.25;;;15.30;1.00;;;;;;7367078;19;20073;-71
2023/05/13 12:23:20;;;;;;;3.55;3.20;;;15.40;1.00;;;;;;7366787;19;20007;-70
2023/05/13 12:25:50;;;;;;;3.95;3.42;;;15.60;1.00;;;;;;7368499;19;20039;-70
2023/05/13 12:28:24;;;;;;;5.95;3.08;;;15.50;1.00;;;;;;7367522;19;20009;-70
2023/05/13 12:30:56;;;;;;;4.35;3.40;;;15.60;1.00;;;;;;7366178;19;20007;-70
2023/05/13 12:33:28;;;;;;;3.33;3.03;;;15.90;1.00;;;;;;7368160;19;20459;-70
2023/05/13 12:36:18;;;;;;;4.25;3.65;;;15.80;1.00;;;;;;7389939;19;20077;-70
2023/05/13 12:38:58;;;;;;;3.90;3.50;;;15.90;1.00;;;;;;7366219;19;20002;-70
2023/05/13 12:41:30;;;;;;;3.50;3.20;;;15.70;1.00;;;;;;7366825;19;20010;-71
2023/05/13 12:44:05;;;;;;;3.70;3.20;;;15.50;1.00;;;;;;7366072;19;20482;-70
2023/05/13 12:46:35;;;;;;;4.00;3.33;;;15.60;1.00;;;;;;7368615;19;20026;-71
2023/05/13 12:49:06;;;;;;;5.13;3.88;;;15.30;1.00;;;;;;7365416;19;20027;-71
2023/05/13 12:51:36;;;;;;;4.80;3.90;;;15.40;1.00;;;;;;7375925;19;20011;-71
2023/05/13 12:54:06;;;;;;;4.93;3.53;;;15.30;1.00;;;;;;7396658;19;20052;-71
2023/05/13 12:56:36;;;;;;;4.38;3.72;;;15.40;1.00;;;;;;7375505;19;20046;-70
2023/05/13 12:59:09;;;;;;;4.05;3.65;;;15.30;1.00;;;;;;7372075;19;20014;-71
2023/05/13 13:01:39;;;;;;;4.28;3.88;;;15.50;1.00;;;;;;7375953;19;20026;-71
2023/05/13 13:04:09;;;;;;;3.75;3.20;;;15.60;1.00;;;;;;7373162;19;20120;-70
2023/05/13 13:06:39;;;;;;;3.72;3.33;;;15.70;1.00;;;;;;7376548;19;20029;-71
2023/05/13 13:09:09;;;;;;;3.60;3.28;;;15.80;1.00;;;;;;7394605;19;20014;-71
2023/05/13 13:11:39;;;;;;;5.38;3.50;;;16.00;1.00;;;;;;7374770;19;20030;-71
2023/05/13 13:14:12;;;;;;;4.32;3.25;;;16.00;1.00;;;;;;7373641;19;20422;-70
2023/05/13 13:16:42;;;;;;;5.05;3.60;;;15.90;1.00;;;;;;7374130;19;20010;-70